Downstream station:
SHEF ID: CHTM7 Spring River at Carthage, MO
STATION TYPE:
PRECIP STAGE RIV-FLOW
in ft cfs
Ccp-Rev Ccp-Rev Ccp-Rev
(US/Central)
03/31 00:00 0.01 4.07 568
03/31 01:00 0.00 4.08 574
03/31 02:00 0.00 4.09 581
03/31 03:00 0.00 4.09 581
03/31 04:00 0.00 4.11 593
03/31 05:00 0.00 4.11 593
03/31 06:00 0.00 4.11 593
03/31 07:00 0.00 4.12 600
03/31 08:00 0.00 4.13 606
03/31 09:00 0.00 4.14 613
03/31 10:00 0.00 4.16 625
03/31 11:00 0.00 4.18 638
03/31 12:00 0.00 4.19 645
03/31 13:00 0.00 4.22 664
03/31 14:00 0.01 4.25 685
03/31 15:00 0.00 4.26 691
03/31 16:00 0.00 4.28 705
03/31 17:00 0.00 4.30 718
03/31 18:00 0.00 4.32 731
03/31 19:00 0.00 4.32 731
03/31 20:00 0.00 4.35 750
03/31 21:00 0.00 4.35 750
03/31 22:00 0.00 4.36 757
03/31 23:00 ---- ---- ----